sensor_id;sensor_type;location;lat;lon;timestamp;temperature;humidity
25554;DHT22;13446;50.926;5.332;2022-09-02T00:00:34;21.00;67.00
25554;DHT22;13446;50.926;5.332;2022-09-02T00:03:01;20.90;67.30
25554;DHT22;13446;50.926;5.332;2022-09-02T00:05:26;20.90;68.20
25554;DHT22;13446;50.926;5.332;2022-09-02T00:07:53;20.80;68.10
25554;DHT22;13446;50.926;5.332;2022-09-02T00:10:18;20.90;68.50
25554;DHT22;13446;50.926;5.332;2022-09-02T00:12:44;20.90;68.30
25554;DHT22;13446;50.926;5.332;2022-09-02T00:15:09;21.00;68.50
25554;DHT22;13446;50.926;5.332;2022-09-02T00:17:38;21.00;68.40
25554;DHT22;13446;50.926;5.332;2022-09-02T00:20:04;20.90;69.20
25554;DHT22;13446;50.926;5.332;2022-09-02T00:22:30;20.80;69.90
25554;DHT22;13446;50.926;5.332;2022-09-02T00:24:55;20.70;70.70
25554;DHT22;13446;50.926;5.332;2022-09-02T00:27:21;20.80;71.00
25554;DHT22;13446;50.926;5.332;2022-09-02T00:29:47;20.80;71.30
25554;DHT22;13446;50.926;5.332;2022-09-02T00:32:13;20.70;71.80
25554;DHT22;13446;50.926;5.332;2022-09-02T00:34:39;20.60;72.50
25554;DHT22;13446;50.926;5.332;2022-09-02T00:37:04;20.60;72.80
25554;DHT22;13446;50.926;5.332;2022-09-02T00:39:30;20.60;73.40
25554;DHT22;13446;50.926;5.332;2022-09-02T00:41:55;20.60;73.70
25554;DHT22;13446;50.926;5.332;2022-09-02T00:44:21;20.60;74.10
25554;DHT22;13446;50.926;5.332;2022-09-02T00:46:48;20.60;74.60
25554;DHT22;13446;50.926;5.332;2022-09-02T00:49:15;20.60;74.90
25554;DHT22;13446;50.926;5.332;2022-09-02T00:51:46;20.60;75.40
25554;DHT22;13446;50.926;5.332;2022-09-02T00:54:13;20.80;75.10
25554;DHT22;13446;50.926;5.332;2022-09-02T00:56:39;20.80;75.40
25554;DHT22;13446;50.926;5.332;2022-09-02T00:59:06;20.80;75.20
25554;DHT22;13446;50.926;5.332;2022-09-02T01:01:32;20.80;75.70
25554;DHT22;13446;50.926;5.332;2022-09-02T01:03:58;20.90;75.70
25554;DHT22;13446;50.926;5.332;2022-09-02T01:06:24;20.90;75.60
25554;DHT22;13446;50.926;5.332;2022-09-02T01:08:53;20.80;76.20
25554;DHT22;13446;50.926;5.332;2022-09-02T01:11:21;20.60;77.70
25554;DHT22;13446;50.926;5.332;2022-09-02T01:13:47;20.50;78.70
25554;DHT22;13446;50.926;5.332;2022-09-02T01:16:22;20.60;78.80
25554;DHT22;13446;50.926;5.332;2022-09-02T01:18:49;20.60;79.00
25554;DHT22;13446;50.926;5.332;2022-09-02T01:21:16;20.70;79.20
25554;DHT22;13446;50.926;5.332;2022-09-02T01:23:42;20.60;80.00
25554;DHT22;13446;50.926;5.332;2022-09-02T01:26:08;20.50;80.50
25554;DHT22;13446;50.926;5.332;2022-09-02T01:28:35;20.60;80.40
25554;DHT22;13446;50.926;5.332;2022-09-02T01:31:00;20.60;81.00
25554;DHT22;13446;50.926;5.332;2022-09-02T01:33:26;20.60;81.20
25554;DHT22;13446;50.926;5.332;2022-09-02T01:35:52;20.60;81.40
25554;DHT22;13446;50.926;5.332;2022-09-02T01:38:18;20.50;81.80
25554;DHT22;13446;50.926;5.332;2022-09-02T01:40:44;20.60;81.90
25554;DHT22;13446;50.926;5.332;2022-09-02T01:43:11;20.60;82.50
25554;DHT22;13446;50.926;5.332;2022-09-02T01:45:38;20.60;82.50
25554;DHT22;13446;50.926;5.332;2022-09-02T01:48:04;20.80;82.40
25554;DHT22;13446;50.926;5.332;2022-09-02T01:50:30;20.80;82.30
25554;DHT22;13446;50.926;5.332;2022-09-02T01:52:57;20.80;81.90
25554;DHT22;13446;50.926;5.332;2022-09-02T01:55:23;20.80;81.90
25554;DHT22;13446;50.926;5.332;2022-09-02T01:57:48;20.80;82.50
25554;DHT22;13446;50.926;5.332;2022-09-02T02:00:14;20.70;83.30
25554;DHT22;13446;50.926;5.332;2022-09-02T02:02:40;20.70;83.20
25554;DHT22;13446;50.926;5.332;2022-09-02T02:05:06;20.80;83.40
25554;DHT22;13446;50.926;5.332;2022-09-02T02:07:32;20.90;83.40
25554;DHT22;13446;50.926;5.332;2022-09-02T02:09:57;20.80;84.00
25554;DHT22;13446;50.926;5.332;2022-09-02T02:12:23;20.90;83.80
25554;DHT22;13446;50.926;5.332;2022-09-02T02:14:48;21.00;84.00
25554;DHT22;13446;50.926;5.332;2022-09-02T02:17:14;20.90;84.30
25554;DHT22;13446;50.926;5.332;2022-09-02T02:19:40;20.90;84.90
25554;DHT22;13446;50.926;5.332;2022-09-02T02:22:06;20.80;85.60
25554;DHT22;13446;50.926;5.332;2022-09-02T02:24:31;20.90;85.70
25554;DHT22;13446;50.926;5.332;2022-09-02T02:26:57;20.90;86.20
25554;DHT22;13446;50.926;5.332;2022-09-02T02:29:23;20.90;85.70
25554;DHT22;13446;50.926;5.332;2022-09-02T02:31:48;20.90;86.10
25554;DHT22;13446;50.926;5.332;2022-09-02T02:34:14;21.00;85.80
25554;DHT22;13446;50.926;5.332;2022-09-02T02:36:40;20.90;85.80
25554;DHT22;13446;50.926;5.332;2022-09-02T02:39:06;21.00;85.80
25554;DHT22;13446;50.926;5.332;2022-09-02T02:41:34;21.00;86.10
25554;DHT22;13446;50.926;5.332;2022-09-02T02:43:59;21.00;85.80
25554;DHT22;13446;50.926;5.332;2022-09-02T02:46:25;21.00;85.90
25554;DHT22;13446;50.926;5.332;2022-09-02T02:48:51;21.00;86.40
25554;DHT22;13446;50.926;5.332;2022-09-02T02:51:16;21.00;86.80
25554;DHT22;13446;50.926;5.332;2022-09-02T02:53:42;21.00;86.60
25554;DHT22;13446;50.926;5.332;2022-09-02T02:56:07;21.00;86.70
25554;DHT22;13446;50.926;5.332;2022-09-02T02:58:34;21.20;86.20
25554;DHT22;13446;50.926;5.332;2022-09-02T03:00:59;21.10;86.10
25554;DHT22;13446;50.926;5.332;2022-09-02T03:03:25;21.00;86.90
25554;DHT22;13446;50.926;5.332;2022-09-02T03:05:51;21.00;87.50
25554;DHT22;13446;50.926;5.332;2022-09-02T03:08:16;21.00;87.60
25554;DHT22;13446;50.926;5.332;2022-09-02T03:10:46;20.90;87.50
25554;DHT22;13446;50.926;5.332;2022-09-02T03:13:12;20.90;87.80
25554;DHT22;13446;50.926;5.332;2022-09-02T03:15:39;20.90;87.80
25554;DHT22;13446;50.926;5.332;2022-09-02T03:18:05;20.90;88.00
25554;DHT22;13446;50.926;5.332;2022-09-02T03:20:31;20.90;87.70
25554;DHT22;13446;50.926;5.332;2022-09-02T03:22:57;20.90;88.00
25554;DHT22;13446;50.926;5.332;2022-09-02T03:25:24;20.90;88.00
25554;DHT22;13446;50.926;5.332;2022-09-02T03:27:50;20.90;88.40
25554;DHT22;13446;50.926;5.332;2022-09-02T03:30:17;21.00;87.80
25554;DHT22;13446;50.926;5.332;2022-09-02T03:32:42;21.10;87.30
25554;DHT22;13446;50.926;5.332;2022-09-02T03:35:09;21.20;86.80
25554;DHT22;13446;50.926;5.332;2022-09-02T03:37:36;21.20;86.10
25554;DHT22;13446;50.926;5.332;2022-09-02T03:40:05;21.20;85.70
25554;DHT22;13446;50.926;5.332;2022-09-02T03:42:31;21.20;85.70
25554;DHT22;13446;50.926;5.332;2022-09-02T03:44:56;21.00;86.30
25554;DHT22;13446;50.926;5.332;2022-09-02T03:47:22;21.00;86.50
25554;DHT22;13446;50.926;5.332;2022-09-02T03:49:48;21.10;86.40
25554;DHT22;13446;50.926;5.332;2022-09-02T03:52:15;21.00;86.40
25554;DHT22;13446;50.926;5.332;2022-09-02T03:54:40;20.90;86.50
25554;DHT22;13446;50.926;5.332;2022-09-02T03:57:06;20.80;87.60
25554;DHT22;13446;50.926;5.332;2022-09-02T03:59:31;20.90;87.00
25554;DHT22;13446;50.926;5.332;2022-09-02T04:01:57;20.80;87.20
25554;DHT22;13446;50.926;5.332;2022-09-02T04:04:22;20.80;87.80
25554;DHT22;13446;50.926;5.332;2022-09-02T04:06:48;20.70;88.50
25554;DHT22;13446;50.926;5.332;2022-09-02T04:09:14;20.70;88.20
25554;DHT22;13446;50.926;5.332;2022-09-02T04:11:39;20.80;87.70
25554;DHT22;13446;50.926;5.332;2022-09-02T04:14:08;21.00;86.80
25554;DHT22;13446;50.926;5.332;2022-09-02T04:16:36;20.90;86.80
25554;DHT22;13446;50.926;5.332;2022-09-02T04:19:02;20.90;86.80
25554;DHT22;13446;50.926;5.332;2022-09-02T04:21:30;21.00;86.70
25554;DHT22;13446;50.926;5.332;2022-09-02T04:23:56;21.00;86.60
25554;DHT22;13446;50.926;5.332;2022-09-02T04:26:22;20.90;86.70
25554;DHT22;13446;50.926;5.332;2022-09-02T04:28:48;20.80;87.40
25554;DHT22;13446;50.926;5.332;2022-09-02T04:31:15;20.90;87.50
25554;DHT22;13446;50.926;5.332;2022-09-02T04:33:41;21.00;87.10
25554;DHT22;13446;50.926;5.332;2022-09-02T04:36:08;21.00;87.00
25554;DHT22;13446;50.926;5.332;2022-09-02T04:38:34;21.10;86.50
25554;DHT22;13446;50.926;5.332;2022-09-02T04:41:00;21.00;87.30
25554;DHT22;13446;50.926;5.332;2022-09-02T04:43:29;21.00;87.00
25554;DHT22;13446;50.926;5.332;2022-09-02T04:45:55;20.90;87.40
25554;DHT22;13446;50.926;5.332;2022-09-02T04:48:21;21.00;87.30
25554;DHT22;13446;50.926;5.332;2022-09-02T04:50:48;21.00;87.80
25554;DHT22;13446;50.926;5.332;2022-09-02T04:53:14;20.80;88.50
25554;DHT22;13446;50.926;5.332;2022-09-02T04:55:40;20.80;89.00
25554;DHT22;13446;50.926;5.332;2022-09-02T04:58:06;20.90;89.00
25554;DHT22;13446;50.926;5.332;2022-09-02T05:00:31;20.80;89.00
25554;DHT22;13446;50.926;5.332;2022-09-02T05:02:57;20.70;90.00
25554;DHT22;13446;50.926;5.332;2022-09-02T05:05:22;20.60;90.30
25554;DHT22;13446;50.926;5.332;2022-09-02T05:07:48;20.60;90.60
25554;DHT22;13446;50.926;5.332;2022-09-02T05:10:14;20.60;90.50
25554;DHT22;13446;50.926;5.332;2022-09-02T05:12:40;20.60;90.70
25554;DHT22;13446;50.926;5.332;2022-09-02T05:15:08;20.60;90.80
25554;DHT22;13446;50.926;5.332;2022-09-02T05:17:34;20.50;91.00
25554;DHT22;13446;50.926;5.332;2022-09-02T05:20:01;20.50;91.10
25554;DHT22;13446;50.926;5.332;2022-09-02T05:22:27;20.50;91.20
25554;DHT22;13446;50.926;5.332;2022-09-02T05:24:54;20.40;91.30
25554;DHT22;13446;50.926;5.332;2022-09-02T05:27:20;20.40;91.50
25554;DHT22;13446;50.926;5.332;2022-09-02T05:29:45;20.40;91.50
25554;DHT22;13446;50.926;5.332;2022-09-02T05:32:11;20.40;91.50
25554;DHT22;13446;50.926;5.332;2022-09-02T05:34:37;20.50;91.70
25554;DHT22;13446;50.926;5.332;2022-09-02T05:37:03;20.60;91.40
25554;DHT22;13446;50.926;5.332;2022-09-02T05:39:29;21.00;90.50
25554;DHT22;13446;50.926;5.332;2022-09-02T05:41:55;21.10;90.00
25554;DHT22;13446;50.926;5.332;2022-09-02T05:44:20;21.20;89.30
25554;DHT22;13446;50.926;5.332;2022-09-02T05:46:46;21.00;89.70
25554;DHT22;13446;50.926;5.332;2022-09-02T05:49:12;20.90;90.40
25554;DHT22;13446;50.926;5.332;2022-09-02T05:51:46;20.90;90.50
25554;DHT22;13446;50.926;5.332;2022-09-02T05:54:22;20.90;90.60
25554;DHT22;13446;50.926;5.332;2022-09-02T05:56:49;21.00;90.40
25554;DHT22;13446;50.926;5.332;2022-09-02T05:59:16;21.00;90.60
25554;DHT22;13446;50.926;5.332;2022-09-02T06:01:42;21.00;90.60
25554;DHT22;13446;50.926;5.332;2022-09-02T06:04:08;20.80;90.90
25554;DHT22;13446;50.926;5.332;2022-09-02T06:06:34;21.00;90.80
25554;DHT22;13446;50.926;5.332;2022-09-02T06:09:01;21.00;90.60
25554;DHT22;13446;50.926;5.332;2022-09-02T06:11:29;20.80;90.90
25554;DHT22;13446;50.926;5.332;2022-09-02T06:13:54;20.90;91.00
25554;DHT22;13446;50.926;5.332;2022-09-02T06:16:21;21.00;90.90
25554;DHT22;13446;50.926;5.332;2022-09-02T06:18:47;20.90;91.00
25554;DHT22;13446;50.926;5.332;2022-09-02T06:21:12;21.00;90.90
25554;DHT22;13446;50.926;5.332;2022-09-02T06:23:38;21.10;90.80
25554;DHT22;13446;50.926;5.332;2022-09-02T06:26:05;21.20;90.80
25554;DHT22;13446;50.926;5.332;2022-09-02T06:28:32;21.40;90.20
25554;DHT22;13446;50.926;5.332;2022-09-02T06:30:58;21.50;90.00
25554;DHT22;13446;50.926;5.332;2022-09-02T06:33:24;21.80;89.00
25554;DHT22;13446;50.926;5.332;2022-09-02T06:35:50;21.90;87.90
25554;DHT22;13446;50.926;5.332;2022-09-02T06:38:16;22.00;87.50
25554;DHT22;13446;50.926;5.332;2022-09-02T06:43:12;21.80;88.10
25554;DHT22;13446;50.926;5.332;2022-09-02T06:45:38;21.80;87.90
25554;DHT22;13446;50.926;5.332;2022-09-02T06:48:04;22.00;87.90
25554;DHT22;13446;50.926;5.332;2022-09-02T06:50:30;22.00;87.70
25554;DHT22;13446;50.926;5.332;2022-09-02T06:52:55;21.90;88.50
25554;DHT22;13446;50.926;5.332;2022-09-02T06:55:21;21.70;89.00
25554;DHT22;13446;50.926;5.332;2022-09-02T06:57:48;21.90;89.00
25554;DHT22;13446;50.926;5.332;2022-09-02T07:00:14;21.90;88.10
25554;DHT22;13446;50.926;5.332;2022-09-02T07:02:41;21.90;89.00
25554;DHT22;13446;50.926;5.332;2022-09-02T07:05:07;22.00;88.70
25554;DHT22;13446;50.926;5.332;2022-09-02T07:07:36;22.20;87.70
25554;DHT22;13446;50.926;5.332;2022-09-02T07:10:03;22.40;86.90
25554;DHT22;13446;50.926;5.332;2022-09-02T07:12:28;22.50;87.10
25554;DHT22;13446;50.926;5.332;2022-09-02T07:14:54;22.60;86.20
25554;DHT22;13446;50.926;5.332;2022-09-02T07:17:21;22.70;85.80
25554;DHT22;13446;50.926;5.332;2022-09-02T07:19:49;22.80;85.50
25554;DHT22;13446;50.926;5.332;2022-09-02T07:22:15;22.70;86.20
25554;DHT22;13446;50.926;5.332;2022-09-02T07:24:40;22.90;86.30
25554;DHT22;13446;50.926;5.332;2022-09-02T07:27:06;23.00;85.50
25554;DHT22;13446;50.926;5.332;2022-09-02T07:29:32;23.00;85.80
25554;DHT22;13446;50.926;5.332;2022-09-02T07:31:58;23.30;85.10
25554;DHT22;13446;50.926;5.332;2022-09-02T07:34:23;23.60;82.80
25554;DHT22;13446;50.926;5.332;2022-09-02T07:36:49;23.70;82.30
25554;DHT22;13446;50.926;5.332;2022-09-02T07:39:16;23.60;82.70
25554;DHT22;13446;50.926;5.332;2022-09-02T07:41:44;23.90;83.50
25554;DHT22;13446;50.926;5.332;2022-09-02T07:44:10;24.50;79.80
25554;DHT22;13446;50.926;5.332;2022-09-02T07:46:36;25.10;76.30
25554;DHT22;13446;50.926;5.332;2022-09-02T07:49:03;25.20;74.20
25554;DHT22;13446;50.926;5.332;2022-09-02T07:51:30;25.70;72.80
25554;DHT22;13446;50.926;5.332;2022-09-02T07:53:56;25.90;70.70
25554;DHT22;13446;50.926;5.332;2022-09-02T07:56:22;26.00;69.40
25554;DHT22;13446;50.926;5.332;2022-09-02T07:58:47;25.90;68.40
25554;DHT22;13446;50.926;5.332;2022-09-02T08:01:14;26.30;67.60
25554;DHT22;13446;50.926;5.332;2022-09-02T08:03:40;26.50;67.50
25554;DHT22;13446;50.926;5.332;2022-09-02T08:06:06;27.60;63.00
25554;DHT22;13446;50.926;5.332;2022-09-02T08:08:32;28.40;59.50
25554;DHT22;13446;50.926;5.332;2022-09-02T08:10:59;30.00;56.50
25554;DHT22;13446;50.926;5.332;2022-09-02T08:13:25;30.70;53.00
25554;DHT22;13446;50.926;5.332;2022-09-02T08:15:50;30.80;51.30
25554;DHT22;13446;50.926;5.332;2022-09-02T08:18:16;31.10;50.90
25554;DHT22;13446;50.926;5.332;2022-09-02T08:20:42;31.60;49.20
25554;DHT22;13446;50.926;5.332;2022-09-02T08:23:07;31.70;48.50
25554;DHT22;13446;50.926;5.332;2022-09-02T08:25:34;31.50;47.70
25554;DHT22;13446;50.926;5.332;2022-09-02T08:28:00;31.70;48.00
25554;DHT22;13446;50.926;5.332;2022-09-02T08:30:25;32.00;46.60
25554;DHT22;13446;50.926;5.332;2022-09-02T08:32:51;31.40;46.80
25554;DHT22;13446;50.926;5.332;2022-09-02T08:35:17;31.20;47.20
25554;DHT22;13446;50.926;5.332;2022-09-02T08:37:42;31.20;47.30
25554;DHT22;13446;50.926;5.332;2022-09-02T08:40:12;30.40;48.30
25554;DHT22;13446;50.926;5.332;2022-09-02T08:42:41;30.10;49.30
25554;DHT22;13446;50.926;5.332;2022-09-02T08:45:12;30.40;49.30
25554;DHT22;13446;50.926;5.332;2022-09-02T08:47:38;30.40;49.30
25554;DHT22;13446;50.926;5.332;2022-09-02T08:50:09;30.30;48.60
25554;DHT22;13446;50.926;5.332;2022-09-02T08:55:23;30.10;48.90
25554;DHT22;13446;50.926;5.332;2022-09-02T08:57:51;29.80;49.40
25554;DHT22;13446;50.926;5.332;2022-09-02T09:00:20;29.60;49.60
25554;DHT22;13446;50.926;5.332;2022-09-02T09:05:32;29.20;50.60
25554;DHT22;13446;50.926;5.332;2022-09-02T09:08:03;29.30;50.90
25554;DHT22;13446;50.926;5.332;2022-09-02T09:13:03;29.20;50.60
25554;DHT22;13446;50.926;5.332;2022-09-02T09:17:59;29.70;49.90
25554;DHT22;13446;50.926;5.332;2022-09-02T09:20:28;29.70;50.40
25554;DHT22;13446;50.926;5.332;2022-09-02T09:22:55;30.20;48.70
25554;DHT22;13446;50.926;5.332;2022-09-02T09:25:21;30.10;48.40
25554;DHT22;13446;50.926;5.332;2022-09-02T09:27:55;30.40;48.30
25554;DHT22;13446;50.926;5.332;2022-09-02T09:30:22;30.80;47.40
25554;DHT22;13446;50.926;5.332;2022-09-02T09:32:51;30.60;47.50
25554;DHT22;13446;50.926;5.332;2022-09-02T09:35:22;31.10;47.00
25554;DHT22;13446;50.926;5.332;2022-09-02T09:37:48;31.40;45.90
25554;DHT22;13446;50.926;5.332;2022-09-02T09:42:42;33.80;43.10
25554;DHT22;13446;50.926;5.332;2022-09-02T09:45:17;34.50;41.00
25554;DHT22;13446;50.926;5.332;2022-09-02T09:47:44;34.10;39.80
25554;DHT22;13446;50.926;5.332;2022-09-02T09:52:36;33.40;40.30
25554;DHT22;13446;50.926;5.332;2022-09-02T09:55:15;32.90;41.00
25554;DHT22;13446;50.926;5.332;2022-09-02T09:57:43;33.20;40.90
25554;DHT22;13446;50.926;5.332;2022-09-02T10:00:10;33.50;40.70
25554;DHT22;13446;50.926;5.332;2022-09-02T10:02:35;33.80;40.10
25554;DHT22;13446;50.926;5.332;2022-09-02T10:05:15;34.80;38.70
25554;DHT22;13446;50.926;5.332;2022-09-02T10:07:41;34.90;38.40
25554;DHT22;13446;50.926;5.332;2022-09-02T10:10:18;36.20;37.30
25554;DHT22;13446;50.926;5.332;2022-09-02T10:12:44;37.50;35.70
25554;DHT22;13446;50.926;5.332;2022-09-02T10:15:10;36.90;33.60
25554;DHT22;13446;50.926;5.332;2022-09-02T10:22:40;40.50;30.80
25554;DHT22;13446;50.926;5.332;2022-09-02T10:27:39;38.10;29.70
25554;DHT22;13446;50.926;5.332;2022-09-02T10:30:11;37.60;29.60
25554;DHT22;13446;50.926;5.332;2022-09-02T10:40:25;34.70;31.50
25554;DHT22;13446;50.926;5.332;2022-09-02T10:43:00;34.30;31.50
25554;DHT22;13446;50.926;5.332;2022-09-02T10:53:04;33.60;31.90
25554;DHT22;13446;50.926;5.332;2022-09-02T10:55:47;33.70;31.60
25554;DHT22;13446;50.926;5.332;2022-09-02T10:58:18;34.30;31.30
25554;DHT22;13446;50.926;5.332;2022-09-02T11:00:47;35.60;29.90
25554;DHT22;13446;50.926;5.332;2022-09-02T11:03:27;36.30;29.00
25554;DHT22;13446;50.926;5.332;2022-09-02T11:06:01;36.60;28.80
25554;DHT22;13446;50.926;5.332;2022-09-02T11:08:33;37.60;28.20
25554;DHT22;13446;50.926;5.332;2022-09-02T11:11:04;37.40;28.10
25554;DHT22;13446;50.926;5.332;2022-09-02T11:18:53;35.60;29.20
25554;DHT22;13446;50.926;5.332;2022-09-02T11:23:50;36.80;28.00
25554;DHT22;13446;50.926;5.332;2022-09-02T11:26:20;37.00;28.10
25554;DHT22;13446;50.926;5.332;2022-09-02T11:28:52;37.60;27.70
25554;DHT22;13446;50.926;5.332;2022-09-02T11:31:31;37.00;27.90
25554;DHT22;13446;50.926;5.332;2022-09-02T11:36:26;36.60;28.30
25554;DHT22;13446;50.926;5.332;2022-09-02T11:38:55;35.80;28.60
25554;DHT22;13446;50.926;5.332;2022-09-02T11:54:44;36.10;28.90
25554;DHT22;13446;50.926;5.332;2022-09-02T11:57:13;37.10;28.20
25554;DHT22;13446;50.926;5.332;2022-09-02T12:07:46;38.70;27.60
25554;DHT22;13446;50.926;5.332;2022-09-02T12:10:39;38.90;26.90
25554;DHT22;13446;50.926;5.332;2022-09-02T12:15:23;39.10;27.50
25554;DHT22;13446;50.926;5.332;2022-09-02T12:26:01;37.20;28.60
25554;DHT22;13446;50.926;5.332;2022-09-02T12:28:27;37.50;28.80
25554;DHT22;13446;50.926;5.332;2022-09-02T12:36:03;38.40;27.70
25554;DHT22;13446;50.926;5.332;2022-09-02T12:38:33;39.00;27.80
25554;DHT22;13446;50.926;5.332;2022-09-02T12:41:05;38.40;27.60
25554;DHT22;13446;50.926;5.332;2022-09-02T12:52:02;37.20;27.30
25554;DHT22;13446;50.926;5.332;2022-09-02T12:54:49;36.80;27.50
25554;DHT22;13446;50.926;5.332;2022-09-02T12:57:16;36.80;27.40
25554;DHT22;13446;50.926;5.332;2022-09-02T12:59:43;37.10;27.70
25554;DHT22;13446;50.926;5.332;2022-09-02T13:10:13;36.10;28.40
25554;DHT22;13446;50.926;5.332;2022-09-02T13:12:55;36.50;28.40
25554;DHT22;13446;50.926;5.332;2022-09-02T13:18:08;36.20;28.80
25554;DHT22;13446;50.926;5.332;2022-09-02T13:29:03;33.10;30.50
25554;DHT22;13446;50.926;5.332;2022-09-02T13:31:32;32.70;31.20
25554;DHT22;13446;50.926;5.332;2022-09-02T13:34:11;32.70;30.80
25554;DHT22;13446;50.926;5.332;2022-09-02T13:36:41;33.30;30.70
25554;DHT22;13446;50.926;5.332;2022-09-02T13:39:23;33.00;30.70
25554;DHT22;13446;50.926;5.332;2022-09-02T13:41:48;32.70;31.00
25554;DHT22;13446;50.926;5.332;2022-09-02T13:44:24;32.40;30.90
25554;DHT22;13446;50.926;5.332;2022-09-02T13:46:58;32.10;31.30
25554;DHT22;13446;50.926;5.332;2022-09-02T13:49:36;31.80;31.70
25554;DHT22;13446;50.926;5.332;2022-09-02T13:52:04;31.70;32.10
25554;DHT22;13446;50.926;5.332;2022-09-02T13:54:33;31.30;32.40
25554;DHT22;13446;50.926;5.332;2022-09-02T13:56:59;31.20;32.50
25554;DHT22;13446;50.926;5.332;2022-09-02T14:01:57;31.20;32.80
25554;DHT22;13446;50.926;5.332;2022-09-02T14:04:23;30.80;33.10
25554;DHT22;13446;50.926;5.332;2022-09-02T14:06:49;30.70;33.30
25554;DHT22;13446;50.926;5.332;2022-09-02T14:09:25;30.80;33.10
25554;DHT22;13446;50.926;5.332;2022-09-02T14:11:53;30.70;33.50
25554;DHT22;13446;50.926;5.332;2022-09-02T14:14:20;30.60;33.30
25554;DHT22;13446;50.926;5.332;2022-09-02T14:16:46;30.60;33.40
25554;DHT22;13446;50.926;5.332;2022-09-02T14:24:12;30.50;33.80
25554;DHT22;13446;50.926;5.332;2022-09-02T14:26:42;30.60;33.60
25554;DHT22;13446;50.926;5.332;2022-09-02T14:29:11;30.70;33.30
25554;DHT22;13446;50.926;5.332;2022-09-02T14:31:37;30.50;33.50
25554;DHT22;13446;50.926;5.332;2022-09-02T14:34:02;30.50;33.50
25554;DHT22;13446;50.926;5.332;2022-09-02T14:36:31;30.40;33.70
25554;DHT22;13446;50.926;5.332;2022-09-02T14:39:11;30.30;33.60
25554;DHT22;13446;50.926;5.332;2022-09-02T14:41:40;30.10;33.80
25554;DHT22;13446;50.926;5.332;2022-09-02T14:46:37;30.10;34.10
25554;DHT22;13446;50.926;5.332;2022-09-02T14:49:06;30.20;33.90
25554;DHT22;13446;50.926;5.332;2022-09-02T14:52:09;30.20;33.80
25554;DHT22;13446;50.926;5.332;2022-09-02T14:54:44;30.10;34.00
25554;DHT22;13446;50.926;5.332;2022-09-02T14:59:46;30.00;34.30
25554;DHT22;13446;50.926;5.332;2022-09-02T15:02:20;30.10;34.00
25554;DHT22;13446;50.926;5.332;2022-09-02T15:04:46;29.90;34.20
25554;DHT22;13446;50.926;5.332;2022-09-02T15:07:11;29.90;34.30
25554;DHT22;13446;50.926;5.332;2022-09-02T15:09:37;29.90;34.30
25554;DHT22;13446;50.926;5.332;2022-09-02T15:12:03;29.70;34.80
25554;DHT22;13446;50.926;5.332;2022-09-02T15:14:28;29.60;35.10
25554;DHT22;13446;50.926;5.332;2022-09-02T15:16:54;29.50;34.90
25554;DHT22;13446;50.926;5.332;2022-09-02T15:19:19;29.40;34.90
25554;DHT22;13446;50.926;5.332;2022-09-02T15:21:46;29.30;35.20
25554;DHT22;13446;50.926;5.332;2022-09-02T15:24:12;29.10;35.20
25554;DHT22;13446;50.926;5.332;2022-09-02T15:26:38;29.20;35.30
25554;DHT22;13446;50.926;5.332;2022-09-02T15:29:03;29.20;35.50
25554;DHT22;13446;50.926;5.332;2022-09-02T15:31:29;29.30;35.40
25554;DHT22;13446;50.926;5.332;2022-09-02T15:33:56;29.20;35.40
25554;DHT22;13446;50.926;5.332;2022-09-02T15:36:23;29.20;35.40
25554;DHT22;13446;50.926;5.332;2022-09-02T15:38:50;29.10;35.50
25554;DHT22;13446;50.926;5.332;2022-09-02T15:41:17;29.10;35.70
25554;DHT22;13446;50.926;5.332;2022-09-02T15:43:43;29.20;35.20
25554;DHT22;13446;50.926;5.332;2022-09-02T15:46:15;29.10;35.30
25554;DHT22;13446;50.926;5.332;2022-09-02T15:48:40;29.00;35.40
25554;DHT22;13446;50.926;5.332;2022-09-02T15:51:11;29.00;35.40
25554;DHT22;13446;50.926;5.332;2022-09-02T15:53:38;29.10;35.40
25554;DHT22;13446;50.926;5.332;2022-09-02T15:56:13;29.20;35.20
25554;DHT22;13446;50.926;5.332;2022-09-02T15:58:40;29.10;35.70
25554;DHT22;13446;50.926;5.332;2022-09-02T16:01:05;29.20;35.60
25554;DHT22;13446;50.926;5.332;2022-09-02T16:03:31;29.20;35.30
25554;DHT22;13446;50.926;5.332;2022-09-02T16:06:00;29.20;35.30
25554;DHT22;13446;50.926;5.332;2022-09-02T16:08:26;29.00;35.50
25554;DHT22;13446;50.926;5.332;2022-09-02T16:10:52;29.10;35.30
25554;DHT22;13446;50.926;5.332;2022-09-02T16:13:17;29.00;35.40
25554;DHT22;13446;50.926;5.332;2022-09-02T16:15:43;29.20;35.30
25554;DHT22;13446;50.926;5.332;2022-09-02T16:18:10;29.00;35.50
25554;DHT22;13446;50.926;5.332;2022-09-02T16:20:35;28.80;35.70
25554;DHT22;13446;50.926;5.332;2022-09-02T16:23:01;28.70;35.80
25554;DHT22;13446;50.926;5.332;2022-09-02T16:25:27;28.80;35.60
25554;DHT22;13446;50.926;5.332;2022-09-02T16:27:52;28.70;35.90
25554;DHT22;13446;50.926;5.332;2022-09-02T16:30:19;28.70;36.30
25554;DHT22;13446;50.926;5.332;2022-09-02T16:32:45;28.60;36.40
25554;DHT22;13446;50.926;5.332;2022-09-02T16:35:12;28.50;36.90
25554;DHT22;13446;50.926;5.332;2022-09-02T16:37:37;28.40;36.60
25554;DHT22;13446;50.926;5.332;2022-09-02T16:40:03;28.20;36.90
25554;DHT22;13446;50.926;5.332;2022-09-02T16:42:29;28.10;37.30
25554;DHT22;13446;50.926;5.332;2022-09-02T16:44:55;28.00;37.40
25554;DHT22;13446;50.926;5.332;2022-09-02T16:47:20;28.10;37.40
25554;DHT22;13446;50.926;5.332;2022-09-02T16:49:46;28.10;37.40
25554;DHT22;13446;50.926;5.332;2022-09-02T16:52:13;28.10;37.40
25554;DHT22;13446;50.926;5.332;2022-09-02T16:54:38;28.10;37.30
25554;DHT22;13446;50.926;5.332;2022-09-02T16:57:04;28.10;37.10
25554;DHT22;13446;50.926;5.332;2022-09-02T16:59:31;28.10;36.80
25554;DHT22;13446;50.926;5.332;2022-09-02T17:01:57;28.00;36.70
25554;DHT22;13446;50.926;5.332;2022-09-02T17:04:23;27.90;36.90
25554;DHT22;13446;50.926;5.332;2022-09-02T17:06:48;27.80;36.90
25554;DHT22;13446;50.926;5.332;2022-09-02T17:09:15;27.80;37.10
25554;DHT22;13446;50.926;5.332;2022-09-02T17:11:43;27.70;36.80
25554;DHT22;13446;50.926;5.332;2022-09-02T17:14:10;27.60;36.90
25554;DHT22;13446;50.926;5.332;2022-09-02T17:16:38;27.70;37.00
25554;DHT22;13446;50.926;5.332;2022-09-02T17:19:04;27.50;37.10
25554;DHT22;13446;50.926;5.332;2022-09-02T17:21:34;27.50;37.20
25554;DHT22;13446;50.926;5.332;2022-09-02T17:24:02;27.40;37.10
25554;DHT22;13446;50.926;5.332;2022-09-02T17:26:28;27.40;37.10
25554;DHT22;13446;50.926;5.332;2022-09-02T17:28:55;27.40;37.20
25554;DHT22;13446;50.926;5.332;2022-09-02T17:31:29;27.20;37.60
25554;DHT22;13446;50.926;5.332;2022-09-02T17:33:55;27.20;37.50
25554;DHT22;13446;50.926;5.332;2022-09-02T17:36:22;27.10;37.60
25554;DHT22;13446;50.926;5.332;2022-09-02T17:38:48;27.00;37.80